sensor_id;sensor_type;location;lat;lon;timestamp;P1;durP1;ratioP1;P2;durP2;ratioP2
67248;SDS011;63247;54.300;18.592;2024-02-21T00:02:04;17.47;;;3.97;;
67248;SDS011;63247;54.300;18.592;2024-02-21T00:04:30;17.83;;;3.70;;
67248;SDS011;63247;54.300;18.592;2024-02-21T00:06:55;17.07;;;3.57;;
67248;SDS011;63247;54.300;18.592;2024-02-21T00:09:20;17.23;;;3.03;;
67248;SDS011;63247;54.300;18.592;2024-02-21T00:11:46;21.00;;;3.67;;
67248;SDS011;63247;54.300;18.592;2024-02-21T00:14:12;14.40;;;2.88;;
67248;SDS011;63247;54.300;18.592;2024-02-21T00:16:38;24.37;;;4.97;;
67248;SDS011;63247;54.300;18.592;2024-02-21T00:19:03;20.13;;;3.90;;
67248;SDS011;63247;54.300;18.592;2024-02-21T00:21:29;20.60;;;3.90;;
67248;SDS011;63247;54.300;18.592;2024-02-21T00:23:54;18.02;;;3.80;;
67248;SDS011;63247;54.300;18.592;2024-02-21T00:26:20;24.33;;;5.73;;
67248;SDS011;63247;54.300;18.592;2024-02-21T00:28:45;23.50;;;4.40;;
67248;SDS011;63247;54.300;18.592;2024-02-21T00:31:11;15.17;;;2.80;;
67248;SDS011;63247;54.300;18.592;2024-02-21T00:33:36;18.83;;;3.60;;
67248;SDS011;63247;54.300;18.592;2024-02-21T00:36:01;18.80;;;3.40;;
67248;SDS011;63247;54.300;18.592;2024-02-21T00:38:27;19.90;;;3.63;;
67248;SDS011;63247;54.300;18.592;2024-02-21T00:40:52;15.37;;;2.77;;
67248;SDS011;63247;54.300;18.592;2024-02-21T00:43:18;19.07;;;2.97;;
67248;SDS011;63247;54.300;18.592;2024-02-21T00:45:43;21.25;;;3.60;;
67248;SDS011;63247;54.300;18.592;2024-02-21T00:48:08;18.97;;;3.30;;
67248;SDS011;63247;54.300;18.592;2024-02-21T00:50:34;21.67;;;3.67;;
67248;SDS011;63247;54.300;18.592;2024-02-21T00:52:59;19.90;;;2.93;;
67248;SDS011;63247;54.300;18.592;2024-02-21T00:55:25;18.23;;;3.90;;
67248;SDS011;63247;54.300;18.592;2024-02-21T00:57:50;21.45;;;3.88;;
67248;SDS011;63247;54.300;18.592;2024-02-21T01:00:16;20.43;;;3.10;;
67248;SDS011;63247;54.300;18.592;2024-02-21T01:02:42;22.35;;;4.13;;
67248;SDS011;63247;54.300;18.592;2024-02-21T01:05:07;18.15;;;4.13;;
67248;SDS011;63247;54.300;18.592;2024-02-21T01:07:32;21.73;;;5.00;;
67248;SDS011;63247;54.300;18.592;2024-02-21T01:09:58;21.43;;;4.33;;
67248;SDS011;63247;54.300;18.592;2024-02-21T01:12:23;21.27;;;3.80;;
67248;SDS011;63247;54.300;18.592;2024-02-21T01:14:49;25.63;;;4.00;;
67248;SDS011;63247;54.300;18.592;2024-02-21T01:17:14;26.45;;;4.38;;
67248;SDS011;63247;54.300;18.592;2024-02-21T01:19:40;19.33;;;3.70;;
67248;SDS011;63247;54.300;18.592;2024-02-21T01:22:05;23.47;;;4.20;;
67248;SDS011;63247;54.300;18.592;2024-02-21T01:24:31;23.48;;;4.07;;
67248;SDS011;63247;54.300;18.592;2024-02-21T01:26:56;22.93;;;4.40;;
67248;SDS011;63247;54.300;18.592;2024-02-21T01:29:21;20.83;;;3.43;;
67248;SDS011;63247;54.300;18.592;2024-02-21T01:31:47;23.37;;;3.60;;
67248;SDS011;63247;54.300;18.592;2024-02-21T01:34:13;17.03;;;3.20;;
67248;SDS011;63247;54.300;18.592;2024-02-21T01:36:38;23.75;;;3.55;;
67248;SDS011;63247;54.300;18.592;2024-02-21T01:39:04;16.90;;;3.30;;
67248;SDS011;63247;54.300;18.592;2024-02-21T01:41:29;24.10;;;3.60;;
67248;SDS011;63247;54.300;18.592;2024-02-21T01:43:56;26.52;;;3.97;;
67248;SDS011;63247;54.300;18.592;2024-02-21T01:46:21;21.87;;;3.60;;
67248;SDS011;63247;54.300;18.592;2024-02-21T01:48:47;23.15;;;3.45;;
67248;SDS011;63247;54.300;18.592;2024-02-21T01:51:13;18.17;;;3.50;;
67248;SDS011;63247;54.300;18.592;2024-02-21T01:53:43;18.25;;;3.15;;
67248;SDS011;63247;54.300;18.592;2024-02-21T01:56:10;24.20;;;7.10;;
67248;SDS011;63247;54.300;18.592;2024-02-21T01:58:36;25.13;;;3.60;;
67248;SDS011;63247;54.300;18.592;2024-02-21T02:01:04;21.13;;;4.03;;
67248;SDS011;63247;54.300;18.592;2024-02-21T02:03:29;20.45;;;3.78;;
67248;SDS011;63247;54.300;18.592;2024-02-21T02:05:55;19.47;;;5.73;;
67248;SDS011;63247;54.300;18.592;2024-02-21T02:08:20;14.47;;;3.70;;
67248;SDS011;63247;54.300;18.592;2024-02-21T02:10:49;15.75;;;4.28;;
67248;SDS011;63247;54.300;18.592;2024-02-21T02:13:15;21.60;;;4.57;;
67248;SDS011;63247;54.300;18.592;2024-02-21T02:18:07;27.83;;;5.45;;
67248;SDS011;63247;54.300;18.592;2024-02-21T02:20:33;21.93;;;5.80;;
67248;SDS011;63247;54.300;18.592;2024-02-21T02:22:59;26.38;;;6.45;;
67248;SDS011;63247;54.300;18.592;2024-02-21T02:25:26;25.65;;;6.68;;
67248;SDS011;63247;54.300;18.592;2024-02-21T02:27:51;25.92;;;8.25;;
67248;SDS011;63247;54.300;18.592;2024-02-21T02:30:17;26.77;;;6.63;;
67248;SDS011;63247;54.300;18.592;2024-02-21T02:32:45;24.97;;;5.80;;
67248;SDS011;63247;54.300;18.592;2024-02-21T02:35:11;21.67;;;5.70;;
67248;SDS011;63247;54.300;18.592;2024-02-21T02:37:37;22.00;;;4.75;;
67248;SDS011;63247;54.300;18.592;2024-02-21T02:40:04;24.15;;;5.00;;
67248;SDS011;63247;54.300;18.592;2024-02-21T02:42:31;21.65;;;4.47;;
67248;SDS011;63247;54.300;18.592;2024-02-21T02:44:56;29.10;;;5.53;;
67248;SDS011;63247;54.300;18.592;2024-02-21T02:47:22;25.02;;;5.68;;
67248;SDS011;63247;54.300;18.592;2024-02-21T02:49:47;25.80;;;5.10;;
67248;SDS011;63247;54.300;18.592;2024-02-21T02:52:15;23.25;;;4.97;;
67248;SDS011;63247;54.300;18.592;2024-02-21T02:54:44;24.77;;;5.88;;
67248;SDS011;63247;54.300;18.592;2024-02-21T02:57:10;29.10;;;6.20;;
67248;SDS011;63247;54.300;18.592;2024-02-21T02:59:35;25.05;;;5.75;;
67248;SDS011;63247;54.300;18.592;2024-02-21T03:02:01;35.40;;;6.27;;
67248;SDS011;63247;54.300;18.592;2024-02-21T03:04:26;26.40;;;6.20;;
67248;SDS011;63247;54.300;18.592;2024-02-21T03:06:52;23.80;;;7.03;;
67248;SDS011;63247;54.300;18.592;2024-02-21T03:09:17;26.60;;;6.30;;
67248;SDS011;63247;54.300;18.592;2024-02-21T03:11:42;28.13;;;6.67;;
67248;SDS011;63247;54.300;18.592;2024-02-21T03:14:09;29.48;;;6.57;;
67248;SDS011;63247;54.300;18.592;2024-02-21T03:16:35;27.50;;;7.00;;
67248;SDS011;63247;54.300;18.592;2024-02-21T03:19:01;28.45;;;6.72;;
67248;SDS011;63247;54.300;18.592;2024-02-21T03:21:26;27.23;;;6.40;;
67248;SDS011;63247;54.300;18.592;2024-02-21T03:23:51;31.03;;;6.63;;
67248;SDS011;63247;54.300;18.592;2024-02-21T03:26:17;32.23;;;7.93;;
67248;SDS011;63247;54.300;18.592;2024-02-21T03:28:43;35.00;;;7.90;;
67248;SDS011;63247;54.300;18.592;2024-02-21T03:31:11;31.40;;;7.10;;
67248;SDS011;63247;54.300;18.592;2024-02-21T03:33:39;34.13;;;7.32;;
67248;SDS011;63247;54.300;18.592;2024-02-21T03:36:06;28.42;;;7.75;;
67248;SDS011;63247;54.300;18.592;2024-02-21T03:38:31;28.97;;;6.33;;
67248;SDS011;63247;54.300;18.592;2024-02-21T03:40:57;25.17;;;6.70;;
67248;SDS011;63247;54.300;18.592;2024-02-21T03:43:22;32.70;;;6.60;;
67248;SDS011;63247;54.300;18.592;2024-02-21T03:45:47;39.50;;;7.53;;
67248;SDS011;63247;54.300;18.592;2024-02-21T03:48:13;29.77;;;7.87;;
67248;SDS011;63247;54.300;18.592;2024-02-21T03:50:38;34.80;;;8.00;;
67248;SDS011;63247;54.300;18.592;2024-02-21T03:53:04;39.33;;;7.97;;
67248;SDS011;63247;54.300;18.592;2024-02-21T03:55:29;37.00;;;7.43;;
67248;SDS011;63247;54.300;18.592;2024-02-21T03:57:55;33.57;;;7.67;;
67248;SDS011;63247;54.300;18.592;2024-02-21T04:00:20;32.80;;;8.50;;
67248;SDS011;63247;54.300;18.592;2024-02-21T04:02:46;33.45;;;7.47;;
67248;SDS011;63247;54.300;18.592;2024-02-21T04:05:11;29.00;;;7.73;;
67248;SDS011;63247;54.300;18.592;2024-02-21T04:07:40;31.88;;;8.32;;
67248;SDS011;63247;54.300;18.592;2024-02-21T04:10:05;35.73;;;8.57;;
67248;SDS011;63247;54.300;18.592;2024-02-21T04:12:31;31.83;;;8.13;;
67248;SDS011;63247;54.300;18.592;2024-02-21T04:14:56;41.20;;;8.32;;
67248;SDS011;63247;54.300;18.592;2024-02-21T04:17:23;34.80;;;7.87;;
67248;SDS011;63247;54.300;18.592;2024-02-21T04:19:48;26.58;;;7.38;;
67248;SDS011;63247;54.300;18.592;2024-02-21T04:22:14;35.67;;;7.10;;
67248;SDS011;63247;54.300;18.592;2024-02-21T04:24:39;29.83;;;6.80;;
67248;SDS011;63247;54.300;18.592;2024-02-21T04:27:04;25.70;;;6.60;;
67248;SDS011;63247;54.300;18.592;2024-02-21T04:29:30;23.08;;;6.47;;
67248;SDS011;63247;54.300;18.592;2024-02-21T04:31:55;27.43;;;6.23;;
67248;SDS011;63247;54.300;18.592;2024-02-21T04:34:21;21.23;;;6.30;;
67248;SDS011;63247;54.300;18.592;2024-02-21T04:36:47;27.93;;;6.37;;
67248;SDS011;63247;54.300;18.592;2024-02-21T04:39:12;23.27;;;5.40;;
67248;SDS011;63247;54.300;18.592;2024-02-21T04:41:38;21.67;;;6.00;;
67248;SDS011;63247;54.300;18.592;2024-02-21T04:44:03;22.70;;;5.70;;
67248;SDS011;63247;54.300;18.592;2024-02-21T04:46:29;20.92;;;5.40;;
67248;SDS011;63247;54.300;18.592;2024-02-21T04:48:54;23.67;;;5.90;;
67248;SDS011;63247;54.300;18.592;2024-02-21T04:51:20;23.27;;;5.10;;
67248;SDS011;63247;54.300;18.592;2024-02-21T04:53:46;21.97;;;5.07;;
67248;SDS011;63247;54.300;18.592;2024-02-21T04:56:11;20.13;;;5.80;;
67248;SDS011;63247;54.300;18.592;2024-02-21T04:58:37;18.57;;;5.33;;
67248;SDS011;63247;54.300;18.592;2024-02-21T05:01:04;22.23;;;5.50;;
67248;SDS011;63247;54.300;18.592;2024-02-21T05:03:29;21.43;;;5.80;;
67248;SDS011;63247;54.300;18.592;2024-02-21T05:05:55;23.20;;;6.07;;
67248;SDS011;63247;54.300;18.592;2024-02-21T05:08:21;23.37;;;6.50;;
67248;SDS011;63247;54.300;18.592;2024-02-21T05:10:46;24.60;;;6.70;;
67248;SDS011;63247;54.300;18.592;2024-02-21T05:13:11;22.60;;;6.37;;
67248;SDS011;63247;54.300;18.592;2024-02-21T05:15:37;27.90;;;6.57;;
67248;SDS011;63247;54.300;18.592;2024-02-21T05:18:02;21.98;;;6.57;;
67248;SDS011;63247;54.300;18.592;2024-02-21T05:20:28;17.87;;;6.40;;
67248;SDS011;63247;54.300;18.592;2024-02-21T05:22:53;21.27;;;6.40;;
67248;SDS011;63247;54.300;18.592;2024-02-21T05:25:19;22.97;;;6.13;;
67248;SDS011;63247;54.300;18.592;2024-02-21T05:27:44;23.48;;;6.97;;
67248;SDS011;63247;54.300;18.592;2024-02-21T05:30:11;26.67;;;7.20;;
67248;SDS011;63247;54.300;18.592;2024-02-21T05:32:37;28.95;;;7.70;;
67248;SDS011;63247;54.300;18.592;2024-02-21T05:35:02;27.43;;;7.30;;
67248;SDS011;63247;54.300;18.592;2024-02-21T05:37:28;26.83;;;6.88;;
67248;SDS011;63247;54.300;18.592;2024-02-21T05:39:53;24.87;;;6.83;;
67248;SDS011;63247;54.300;18.592;2024-02-21T05:42:19;25.57;;;7.57;;
67248;SDS011;63247;54.300;18.592;2024-02-21T05:44:44;24.48;;;7.53;;
67248;SDS011;63247;54.300;18.592;2024-02-21T05:47:10;26.73;;;7.57;;
67248;SDS011;63247;54.300;18.592;2024-02-21T05:49:37;20.43;;;7.47;;
67248;SDS011;63247;54.300;18.592;2024-02-21T05:52:02;23.15;;;7.57;;
67248;SDS011;63247;54.300;18.592;2024-02-21T05:54:28;27.60;;;8.33;;
67248;SDS011;63247;54.300;18.592;2024-02-21T05:56:53;27.77;;;8.33;;
67248;SDS011;63247;54.300;18.592;2024-02-21T05:59:19;26.58;;;7.85;;
67248;SDS011;63247;54.300;18.592;2024-02-21T06:01:44;29.67;;;7.90;;
67248;SDS011;63247;54.300;18.592;2024-02-21T06:04:09;25.33;;;8.47;;
67248;SDS011;63247;54.300;18.592;2024-02-21T06:06:35;31.00;;;8.47;;
67248;SDS011;63247;54.300;18.592;2024-02-21T06:09:00;24.83;;;7.27;;
67248;SDS011;63247;54.300;18.592;2024-02-21T06:11:27;26.98;;;8.00;;
67248;SDS011;63247;54.300;18.592;2024-02-21T06:13:53;28.33;;;8.20;;
67248;SDS011;63247;54.300;18.592;2024-02-21T06:16:18;22.95;;;7.72;;
67248;SDS011;63247;54.300;18.592;2024-02-21T06:18:44;28.77;;;7.50;;
67248;SDS011;63247;54.300;18.592;2024-02-21T06:21:09;21.87;;;7.10;;
67248;SDS011;63247;54.300;18.592;2024-02-21T06:23:36;24.30;;;6.80;;
67248;SDS011;63247;54.300;18.592;2024-02-21T06:26:02;22.77;;;7.03;;
67248;SDS011;63247;54.300;18.592;2024-02-21T06:28:27;23.10;;;7.70;;
67248;SDS011;63247;54.300;18.592;2024-02-21T06:30:53;25.88;;;6.65;;
67248;SDS011;63247;54.300;18.592;2024-02-21T06:33:18;25.83;;;7.63;;
67248;SDS011;63247;54.300;18.592;2024-02-21T06:35:47;24.98;;;7.15;;
67248;SDS011;63247;54.300;18.592;2024-02-21T06:38:13;24.83;;;7.10;;
67248;SDS011;63247;54.300;18.592;2024-02-21T06:40:39;17.55;;;6.47;;
67248;SDS011;63247;54.300;18.592;2024-02-21T06:43:05;22.83;;;7.05;;
67248;SDS011;63247;54.300;18.592;2024-02-21T06:45:30;26.10;;;7.43;;
67248;SDS011;63247;54.300;18.592;2024-02-21T06:47:56;26.23;;;7.17;;
67248;SDS011;63247;54.300;18.592;2024-02-21T06:50:22;20.13;;;7.07;;
67248;SDS011;63247;54.300;18.592;2024-02-21T06:52:47;20.73;;;6.45;;
67248;SDS011;63247;54.300;18.592;2024-02-21T06:55:12;29.83;;;7.30;;
67248;SDS011;63247;54.300;18.592;2024-02-21T06:57:38;26.57;;;7.50;;
67248;SDS011;63247;54.300;18.592;2024-02-21T07:00:03;25.67;;;6.80;;
67248;SDS011;63247;54.300;18.592;2024-02-21T07:02:33;19.65;;;7.13;;
67248;SDS011;63247;54.300;18.592;2024-02-21T07:04:58;27.83;;;7.85;;
67248;SDS011;63247;54.300;18.592;2024-02-21T07:07:27;25.53;;;7.20;;
67248;SDS011;63247;54.300;18.592;2024-02-21T07:09:52;24.85;;;7.30;;
67248;SDS011;63247;54.300;18.592;2024-02-21T07:12:19;26.47;;;7.87;;
67248;SDS011;63247;54.300;18.592;2024-02-21T07:14:45;25.98;;;8.50;;
67248;SDS011;63247;54.300;18.592;2024-02-21T07:17:10;29.23;;;8.40;;
67248;SDS011;63247;54.300;18.592;2024-02-21T07:19:36;29.97;;;8.77;;
67248;SDS011;63247;54.300;18.592;2024-02-21T07:22:01;28.17;;;8.97;;
67248;SDS011;63247;54.300;18.592;2024-02-21T07:24:27;29.30;;;7.63;;
67248;SDS011;63247;54.300;18.592;2024-02-21T07:27:04;26.03;;;8.63;;
67248;SDS011;63247;54.300;18.592;2024-02-21T07:29:32;31.05;;;8.88;;
67248;SDS011;63247;54.300;18.592;2024-02-21T07:31:58;30.93;;;9.20;;
67248;SDS011;63247;54.300;18.592;2024-02-21T07:34:23;29.95;;;8.82;;
67248;SDS011;63247;54.300;18.592;2024-02-21T07:36:48;31.57;;;9.00;;
67248;SDS011;63247;54.300;18.592;2024-02-21T07:39:14;27.30;;;8.53;;
67248;SDS011;63247;54.300;18.592;2024-02-21T07:41:40;33.70;;;9.32;;
67248;SDS011;63247;54.300;18.592;2024-02-21T07:44:08;33.22;;;10.05;;
67248;SDS011;63247;54.300;18.592;2024-02-21T07:46:33;41.27;;;12.97;;
67248;SDS011;63247;54.300;18.592;2024-02-21T07:49:00;36.63;;;12.10;;
67248;SDS011;63247;54.300;18.592;2024-02-21T07:51:27;53.75;;;17.70;;
67248;SDS011;63247;54.300;18.592;2024-02-21T07:53:53;37.95;;;11.25;;
67248;SDS011;63247;54.300;18.592;2024-02-21T07:56:18;42.27;;;11.63;;
67248;SDS011;63247;54.300;18.592;2024-02-21T07:58:44;35.37;;;11.27;;
67248;SDS011;63247;54.300;18.592;2024-02-21T08:01:18;34.40;;;10.77;;
67248;SDS011;63247;54.300;18.592;2024-02-21T08:03:45;41.13;;;14.43;;
67248;SDS011;63247;54.300;18.592;2024-02-21T08:06:13;31.67;;;9.80;;
67248;SDS011;63247;54.300;18.592;2024-02-21T08:08:39;34.88;;;11.73;;
67248;SDS011;63247;54.300;18.592;2024-02-21T08:11:05;37.53;;;10.68;;
67248;SDS011;63247;54.300;18.592;2024-02-21T08:13:30;46.40;;;13.47;;
67248;SDS011;63247;54.300;18.592;2024-02-21T08:15:56;32.38;;;11.40;;
67248;SDS011;63247;54.300;18.592;2024-02-21T08:18:22;33.57;;;11.27;;
67248;SDS011;63247;54.300;18.592;2024-02-21T08:20:48;32.88;;;9.60;;
67248;SDS011;63247;54.300;18.592;2024-02-21T08:23:15;29.10;;;9.00;;
67248;SDS011;63247;54.300;18.592;2024-02-21T08:25:41;33.15;;;9.32;;
67248;SDS011;63247;54.300;18.592;2024-02-21T08:28:07;32.93;;;9.60;;
67248;SDS011;63247;54.300;18.592;2024-02-21T08:30:33;28.05;;;8.93;;
67248;SDS011;63247;54.300;18.592;2024-02-21T08:32:59;28.17;;;8.60;;
67248;SDS011;63247;54.300;18.592;2024-02-21T08:35:24;26.03;;;8.50;;
67248;SDS011;63247;54.300;18.592;2024-02-21T08:37:50;84.97;;;29.00;;
67248;SDS011;63247;54.300;18.592;2024-02-21T08:40:15;78.95;;;25.38;;
67248;SDS011;63247;54.300;18.592;2024-02-21T08:42:46;30.27;;;11.30;;
67248;SDS011;63247;54.300;18.592;2024-02-21T08:45:11;26.60;;;9.45;;
67248;SDS011;63247;54.300;18.592;2024-02-21T08:47:40;29.53;;;9.50;;
67248;SDS011;63247;54.300;18.592;2024-02-21T08:50:06;29.55;;;10.35;;
67248;SDS011;63247;54.300;18.592;2024-02-21T08:52:32;32.50;;;10.40;;
67248;SDS011;63247;54.300;18.592;2024-02-21T08:54:58;29.73;;;10.73;;
67248;SDS011;63247;54.300;18.592;2024-02-21T08:57:23;32.40;;;10.13;;
67248;SDS011;63247;54.300;18.592;2024-02-21T08:59:49;24.63;;;9.77;;
67248;SDS011;63247;54.300;18.592;2024-02-21T09:02:14;32.72;;;10.35;;
67248;SDS011;63247;54.300;18.592;2024-02-21T09:04:43;37.17;;;11.68;;
67248;SDS011;63247;54.300;18.592;2024-02-21T09:07:09;29.80;;;11.20;;
67248;SDS011;63247;54.300;18.592;2024-02-21T09:09:35;29.38;;;10.40;;
67248;SDS011;63247;54.300;18.592;2024-02-21T09:12:00;51.40;;;19.07;;
67248;SDS011;63247;54.300;18.592;2024-02-21T09:14:31;45.00;;;13.18;;
67248;SDS011;63247;54.300;18.592;2024-02-21T09:16:57;34.00;;;12.30;;
67248;SDS011;63247;54.300;18.592;2024-02-21T09:19:22;40.80;;;12.97;;
67248;SDS011;63247;54.300;18.592;2024-02-21T09:21:47;35.87;;;13.73;;
67248;SDS011;63247;54.300;18.592;2024-02-21T09:24:14;35.78;;;12.38;;
67248;SDS011;63247;54.300;18.592;2024-02-21T09:26:39;37.77;;;12.93;;
67248;SDS011;63247;54.300;18.592;2024-02-21T09:29:05;38.97;;;13.30;;
67248;SDS011;63247;54.300;18.592;2024-02-21T09:31:30;35.08;;;11.63;;
67248;SDS011;63247;54.300;18.592;2024-02-21T09:33:56;36.57;;;12.57;;
67248;SDS011;63247;54.300;18.592;2024-02-21T09:36:21;37.30;;;13.87;;
67248;SDS011;63247;54.300;18.592;2024-02-21T09:38:46;36.50;;;12.07;;
67248;SDS011;63247;54.300;18.592;2024-02-21T09:41:16;37.75;;;12.77;;
67248;SDS011;63247;54.300;18.592;2024-02-21T09:43:43;36.27;;;13.13;;
67248;SDS011;63247;54.300;18.592;2024-02-21T09:46:17;35.65;;;12.77;;
67248;SDS011;63247;54.300;18.592;2024-02-21T09:51:44;37.58;;;12.48;;
67248;SDS011;63247;54.300;18.592;2024-02-21T09:54:11;30.45;;;11.93;;
67248;SDS011;63247;54.300;18.592;2024-02-21T09:56:37;38.03;;;14.20;;
67248;SDS011;63247;54.300;18.592;2024-02-21T09:59:02;32.77;;;12.23;;
67248;SDS011;63247;54.300;18.592;2024-02-21T10:01:32;29.48;;;11.57;;
67248;SDS011;63247;54.300;18.592;2024-02-21T10:03:57;31.30;;;12.20;;
67248;SDS011;63247;54.300;18.592;2024-02-21T10:06:23;26.77;;;11.17;;
67248;SDS011;63247;54.300;18.592;2024-02-21T10:08:55;28.55;;;9.98;;
67248;SDS011;63247;54.300;18.592;2024-02-21T10:11:24;25.13;;;9.77;;
67248;SDS011;63247;54.300;18.592;2024-02-21T10:13:50;24.77;;;9.32;;
67248;SDS011;63247;54.300;18.592;2024-02-21T10:16:16;24.77;;;9.38;;
67248;SDS011;63247;54.300;18.592;2024-02-21T10:18:41;17.30;;;8.40;;
67248;SDS011;63247;54.300;18.592;2024-02-21T10:21:07;21.73;;;8.37;;
67248;SDS011;63247;54.300;18.592;2024-02-21T10:23:43;17.58;;;7.43;;
67248;SDS011;63247;54.300;18.592;2024-02-21T10:26:13;16.73;;;7.50;;
67248;SDS011;63247;54.300;18.592;2024-02-21T10:28:39;16.42;;;7.28;;
67248;SDS011;63247;54.300;18.592;2024-02-21T10:31:09;17.80;;;7.17;;
67248;SDS011;63247;54.300;18.592;2024-02-21T10:33:36;16.38;;;7.28;;
67248;SDS011;63247;54.300;18.592;2024-02-21T10:36:09;16.55;;;7.10;;
67248;SDS011;63247;54.300;18.592;2024-02-21T10:38:36;18.02;;;7.03;;
67248;SDS011;63247;54.300;18.592;2024-02-21T10:41:05;15.85;;;7.28;;
67248;SDS011;63247;54.300;18.592;2024-02-21T10:43:34;13.93;;;6.87;;
67248;SDS011;63247;54.300;18.592;2024-02-21T10:46:05;15.35;;;6.00;;
67248;SDS011;63247;54.300;18.592;2024-02-21T10:48:43;15.95;;;6.35;;
67248;SDS011;63247;54.300;18.592;2024-02-21T10:56:20;13.50;;;5.70;;
67248;SDS011;63247;54.300;18.592;2024-02-21T10:59:07;12.45;;;5.57;;
67248;SDS011;63247;54.300;18.592;2024-02-21T11:01:33;12.10;;;5.55;;
67248;SDS011;63247;54.300;18.592;2024-02-21T11:04:06;14.30;;;5.30;;
67248;SDS011;63247;54.300;18.592;2024-02-21T11:06:34;11.07;;;5.07;;
67248;SDS011;63247;54.300;18.592;2024-02-21T11:09:05;12.77;;;4.77;;
67248;SDS011;63247;54.300;18.592;2024-02-21T11:11:35;16.08;;;5.03;;
67248;SDS011;63247;54.300;18.592;2024-02-21T11:16:44;14.25;;;4.95;;
67248;SDS011;63247;54.300;18.592;2024-02-21T11:19:18;18.35;;;4.97;;
67248;SDS011;63247;54.300;18.592;2024-02-21T11:21:45;11.23;;;4.37;;
67248;SDS011;63247;54.300;18.592;2024-02-21T11:24:10;13.02;;;4.60;;
67248;SDS011;63247;54.300;18.592;2024-02-21T11:26:39;9.10;;;4.40;;
67248;SDS011;63247;54.300;18.592;2024-02-21T11:29:07;14.55;;;4.80;;
67248;SDS011;63247;54.300;18.592;2024-02-21T11:31:41;16.75;;;5.20;;
67248;SDS011;63247;54.300;18.592;2024-02-21T11:34:17;10.77;;;4.43;;
67248;SDS011;63247;54.300;18.592;2024-02-21T11:36:50;13.60;;;4.25;;
67248;SDS011;63247;54.300;18.592;2024-02-21T11:39:25;21.52;;;5.60;;
67248;SDS011;63247;54.300;18.592;2024-02-21T11:44:29;10.48;;;4.03;;
67248;SDS011;63247;54.300;18.592;2024-02-21T11:46:56;11.20;;;4.20;;
67248;SDS011;63247;54.300;18.592;2024-02-21T11:49:21;10.57;;;4.50;;
67248;SDS011;63247;54.300;18.592;2024-02-21T11:51:57;9.30;;;4.20;;
67248;SDS011;63247;54.300;18.592;2024-02-21T11:54:23;14.80;;;4.43;;
67248;SDS011;63247;54.300;18.592;2024-02-21T11:56:49;10.57;;;4.47;;
67248;SDS011;63247;54.300;18.592;2024-02-21T11:59:14;13.68;;;4.70;;
67248;SDS011;63247;54.300;18.592;2024-02-21T12:01:40;10.57;;;4.63;;
67248;SDS011;63247;54.300;18.592;2024-02-21T12:04:05;11.53;;;4.57;;
67248;SDS011;63247;54.300;18.592;2024-02-21T12:06:32;11.30;;;5.10;;
67248;SDS011;63247;54.300;18.592;2024-02-21T12:08:58;9.63;;;4.97;;
67248;SDS011;63247;54.300;18.592;2024-02-21T12:11:23;10.15;;;4.75;;
67248;SDS011;63247;54.300;18.592;2024-02-21T12:13:59;11.53;;;4.43;;
67248;SDS011;63247;54.300;18.592;2024-02-21T12:16:31;12.98;;;5.20;;
67248;SDS011;63247;54.300;18.592;2024-02-21T12:18:58;9.45;;;4.70;;
67248;SDS011;63247;54.300;18.592;2024-02-21T12:21:29;9.98;;;4.63;;
67248;SDS011;63247;54.300;18.592;2024-02-21T12:23:57;11.70;;;5.07;;
67248;SDS011;63247;54.300;18.592;2024-02-21T12:26:23;9.88;;;3.95;;
67248;SDS011;63247;54.300;18.592;2024-02-21T12:28:48;11.43;;;4.40;;
67248;SDS011;63247;54.300;18.592;2024-02-21T12:31:14;9.00;;;4.10;;
67248;SDS011;63247;54.300;18.592;2024-02-21T12:33:41;8.88;;;4.20;;
67248;SDS011;63247;54.300;18.592;2024-02-21T12:36:07;8.68;;;3.80;;
67248;SDS011;63247;54.300;18.592;2024-02-21T12:38:34;7.70;;;3.40;;
67248;SDS011;63247;54.300;18.592;2024-02-21T12:41:00;7.73;;;2.93;;
67248;SDS011;63247;54.300;18.592;2024-02-21T12:43:25;5.88;;;2.10;;
67248;SDS011;63247;54.300;18.592;2024-02-21T12:45:51;6.00;;;2.10;;
67248;SDS011;63247;54.300;18.592;2024-02-21T12:48:17;5.33;;;1.70;;
67248;SDS011;63247;54.300;18.592;2024-02-21T12:50:52;5.90;;;1.77;;
67248;SDS011;63247;54.300;18.592;2024-02-21T12:53:18;4.53;;;1.50;;
67248;SDS011;63247;54.300;18.592;2024-02-21T12:55:47;6.03;;;1.42;;
67248;SDS011;63247;54.300;18.592;2024-02-21T12:58:13;6.63;;;1.20;;
67248;SDS011;63247;54.300;18.592;2024-02-21T13:00:39;5.38;;;1.38;;
67248;SDS011;63247;54.300;18.592;2024-02-21T13:03:04;5.90;;;1.33;;
67248;SDS011;63247;54.300;18.592;2024-02-21T13:05:30;5.17;;;1.33;;
67248;SDS011;63247;54.300;18.592;2024-02-21T13:07:57;4.05;;;1.30;;
67248;SDS011;63247;54.300;18.592;2024-02-21T13:10:23;3.88;;;1.25;;
67248;SDS011;63247;54.300;18.592;2024-02-21T13:12:48;7.50;;;1.83;;
67248;SDS011;63247;54.300;18.592;2024-02-21T13:15:14;6.20;;;1.50;;
67248;SDS011;63247;54.300;18.592;2024-02-21T13:17:41;5.38;;;1.60;;
67248;SDS011;63247;54.300;18.592;2024-02-21T13:20:06;7.83;;;1.50;;
67248;SDS011;63247;54.300;18.592;2024-02-21T13:22:33;3.58;;;1.13;;
67248;SDS011;63247;54.300;18.592;2024-02-21T13:24:59;4.90;;;1.30;;
67248;SDS011;63247;54.300;18.592;2024-02-21T13:27:25;4.53;;;1.20;;
67248;SDS011;63247;54.300;18.592;2024-02-21T13:29:51;4.60;;;1.50;;
67248;SDS011;63247;54.300;18.592;2024-02-21T13:32:18;5.40;;;1.83;;
67248;SDS011;63247;54.300;18.592;2024-02-21T13:34:43;5.50;;;1.80;;
67248;SDS011;63247;54.300;18.592;2024-02-21T13:37:09;5.43;;;1.60;;
67248;SDS011;63247;54.300;18.592;2024-02-21T13:39:35;5.45;;;1.92;;
67248;SDS011;63247;54.300;18.592;2024-02-21T13:42:01;5.35;;;2.05;;
67248;SDS011;63247;54.300;18.592;2024-02-21T13:44:28;6.18;;;2.50;;
67248;SDS011;63247;54.300;18.592;2024-02-21T13:46:53;5.90;;;2.13;;
67248;SDS011;63247;54.300;18.592;2024-02-21T13:49:19;5.93;;;2.50;;
67248;SDS011;63247;54.300;18.592;2024-02-21T13:51:44;6.03;;;2.53;;
67248;SDS011;63247;54.300;18.592;2024-02-21T13:54:10;7.03;;;2.50;;
67248;SDS011;63247;54.300;18.592;2024-02-21T13:56:36;6.20;;;2.50;;
67248;SDS011;63247;54.300;18.592;2024-02-21T13:59:02;7.30;;;2.90;;
67248;SDS011;63247;54.300;18.592;2024-02-21T14:01:28;8.00;;;3.10;;
67248;SDS011;63247;54.300;18.592;2024-02-21T14:03:54;6.83;;;2.70;;
67248;SDS011;63247;54.300;18.592;2024-02-21T14:06:19;8.20;;;2.93;;
67248;SDS011;63247;54.300;18.592;2024-02-21T14:08:45;7.22;;;3.15;;
67248;SDS011;63247;54.300;18.592;2024-02-21T14:11:10;8.33;;;3.10;;
67248;SDS011;63247;54.300;18.592;2024-02-21T14:13:36;7.43;;;2.90;;
67248;SDS011;63247;54.300;18.592;2024-02-21T14:16:01;8.63;;;3.10;;
67248;SDS011;63247;54.300;18.592;2024-02-21T14:18:27;5.50;;;2.30;;
67248;SDS011;63247;54.300;18.592;2024-02-21T14:20:53;6.83;;;2.43;;
67248;SDS011;63247;54.300;18.592;2024-02-21T14:23:18;6.93;;;2.50;;
67248;SDS011;63247;54.300;18.592;2024-02-21T14:25:44;7.10;;;2.70;;
67248;SDS011;63247;54.300;18.592;2024-02-21T14:28:09;5.80;;;2.40;;
67248;SDS011;63247;54.300;18.592;2024-02-21T14:30:35;6.07;;;2.47;;
67248;SDS011;63247;54.300;18.592;2024-02-21T14:33:01;8.20;;;2.70;;